Time,TemperatureF,DewpointF,PressureIn,WindDirection,WindDirectionDegrees,WindSpeedMPH,WindSpeedGustMPH,Humidity,HourlyPrecipIn,Conditions,Clouds,dailyrainin,SoftwareType,DateUTC
2013-09-07 00:04:00,74.5,72.3,30.00,West,281,0.0,0.0,93,0.00,,---,0.00,VWS V14.01,2013-09-07 05:04:00,
2013-09-07 00:09:00,74.2,72.4,30.00,West,281,0.0,0.0,94,0.00,,---,0.00,VWS V14.01,2013-09-07 05:09:00,
2013-09-07 00:14:00,74.1,72.3,30.00,West,281,0.0,0.0,94,0.00,,---,0.00,VWS V14.01,2013-09-07 05:14:00,
2013-09-07 00:19:00,74.0,72.2,30.00,West,281,0.0,0.0,94,0.00,,---,0.00,VWS V14.01,2013-09-07 05:19:00,
2013-09-07 00:24:00,74.0,72.5,30.00,West,281,0.0,0.0,95,0.00,,---,0.00,VWS V14.01,2013-09-07 05:24:00,
2013-09-07 00:30:00,74.1,72.3,30.00,West,281,0.0,0.0,94,0.00,,---,0.00,VWS V14.01,2013-09-07 05:30:00,
2013-09-07 00:35:00,73.8,72.3,30.00,West,281,0.0,0.0,95,0.00,,---,0.00,VWS V14.01,2013-09-07 05:35:00,
2013-09-07 00:36:00,73.7,72.2,30.00,West,281,0.0,0.0,95,0.00,,---,0.00,VWS V14.01,2013-09-07 05:36:00,
2013-09-07 00:40:00,73.7,72.2,30.00,West,281,0.0,0.0,95,0.00,,---,0.00,VWS V14.01,2013-09-07 05:40:00,
2013-09-07 00:45:00,73.7,72.2,30.00,West,281,0.0,0.0,95,0.00,,---,0.00,VWS V14.01,2013-09-07 05:45:00,
2013-09-07 00:50:00,73.6,72.1,30.00,West,281,0.0,0.0,95,0.00,,---,0.00,VWS V14.01,2013-09-07 05:50:00,
2013-09-07 00:55:00,73.5,72.0,30.00,West,281,0.0,0.0,95,0.00,,---,0.00,VWS V14.01,2013-09-07 05:55:00,
2013-09-07 01:00:00,73.4,71.9,30.00,West,281,0.0,0.0,95,0.00,,---,0.00,VWS V14.01,2013-09-07 06:00:00,
2013-09-07 01:05:00,73.4,71.9,30.00,West,281,0.0,0.0,95,0.00,,---,0.00,VWS V14.01,2013-09-07 06:05:00,
2013-09-07 01:06:00,73.4,71.9,30.00,West,281,0.0,0.0,95,0.00,,---,0.00,VWS V14.01,2013-09-07 06:06:00,
2013-09-07 01:10:00,73.3,71.8,30.00,West,281,0.0,0.0,95,0.00,,---,0.00,VWS V14.01,2013-09-07 06:10:00,
2013-09-07 01:15:00,73.3,71.8,30.00,West,281,0.0,0.0,95,0.00,,---,0.00,VWS V14.01,2013-09-07 06:15:00,
2013-09-07 01:25:00,72.7,71.2,30.00,West,281,0.0,0.0,95,0.00,,---,0.00,VWS V14.01,2013-09-07 06:25:00,
2013-09-07 01:30:00,72.9,71.7,30.00,West,281,0.0,0.0,96,0.00,,---,0.00,VWS V14.01,2013-09-07 06:30:00,
2013-09-07 01:35:00,73.0,71.8,29.99,West,281,0.0,0.0,96,0.00,,---,0.00,VWS V14.01,2013-09-07 06:35:00,
2013-09-07 01:36:00,73.0,71.8,29.99,West,281,0.0,0.0,96,0.00,,---,0.00,VWS V14.01,2013-09-07 06:36:00,
2013-09-07 01:40:00,72.9,71.7,29.99,West,281,0.0,0.0,96,0.00,,---,0.00,VWS V14.01,2013-09-07 06:40:00,
2013-09-07 01:45:00,72.7,71.5,29.99,West,281,0.0,0.0,96,0.00,,---,0.00,VWS V14.01,2013-09-07 06:45:00,
2013-09-07 01:50:00,72.6,71.4,29.99,West,281,0.0,0.0,96,0.00,,---,0.00,VWS V14.01,2013-09-07 06:50:00,
2013-09-07 01:55:00,72.5,71.3,29.99,West,281,0.0,0.0,96,0.00,,---,0.00,VWS V14.01,2013-09-07 06:55:00,
2013-09-07 02:00:00,72.6,71.4,29.99,West,281,0.0,0.0,96,0.00,,---,0.00,VWS V14.01,2013-09-07 07:00:00,
2013-09-07 02:05:00,72.5,71.3,29.99,West,281,0.0,0.0,96,0.00,,---,0.00,VWS V14.01,2013-09-07 07:05:00,
2013-09-07 02:06:00,72.4,71.2,29.99,West,281,0.0,0.0,96,0.00,,---,0.00,VWS V14.01,2013-09-07 07:06:00,
2013-09-07 02:10:00,72.2,71.0,29.99,West,281,0.0,0.0,96,0.00,,---,0.00,VWS V14.01,2013-09-07 07:10:00,
2013-09-07 02:15:00,72.2,71.0,29.99,West,281,0.0,0.0,96,0.00,,---,0.00,VWS V14.01,2013-09-07 07:15:00,
2013-09-07 02:20:00,72.3,71.4,29.99,West,281,0.0,0.0,97,0.00,,---,0.00,VWS V14.01,2013-09-07 07:20:00,
2013-09-07 02:25:00,72.2,71.0,29.99,West,281,0.0,0.0,96,0.00,,---,0.00,VWS V14.01,2013-09-07 07:25:00,
2013-09-07 02:30:00,72.0,70.8,29.98,West,281,0.0,0.0,96,0.00,,---,0.00,VWS V14.01,2013-09-07 07:30:00,
2013-09-07 02:35:00,72.0,71.1,29.98,West,281,0.0,0.0,97,0.00,,---,0.00,VWS V14.01,2013-09-07 07:35:00,
2013-09-07 02:36:00,72.0,71.1,29.98,West,281,0.0,0.0,97,0.00,,---,0.00,VWS V14.01,2013-09-07 07:36:00,
2013-09-07 02:40:00,72.1,71.2,29.98,West,281,0.0,0.0,97,0.00,,---,0.00,VWS V14.01,2013-09-07 07:40:00,
2013-09-07 02:45:00,72.1,71.2,29.98,West,281,0.0,0.0,97,0.00,,---,0.00,VWS V14.01,2013-09-07 07:45:00,
2013-09-07 02:50:00,71.9,71.0,29.99,West,281,0.0,0.0,97,0.00,,---,0.00,VWS V14.01,2013-09-07 07:50:00,
2013-09-07 02:55:00,71.9,71.0,29.98,West,281,0.0,0.0,97,0.00,,---,0.00,VWS V14.01,2013-09-07 07:55:00,
2013-09-07 03:00:00,71.8,70.9,29.98,West,281,0.0,0.0,97,0.00,,---,0.00,VWS V14.01,2013-09-07 08:00:00,
2013-09-07 03:05:00,71.6,70.7,29.98,West,281,0.0,0.0,97,0.00,,---,0.00,VWS V14.01,2013-09-07 08:05:00,
2013-09-07 03:06:00,71.6,70.7,29.98,West,281,0.0,0.0,97,0.00,,---,0.00,VWS V14.01,2013-09-07 08:06:00,
2013-09-07 03:10:00,71.4,70.5,29.98,West,281,0.0,0.0,97,0.00,,---,0.00,VWS V14.01,2013-09-07 08:10:00,
2013-09-07 03:15:00,71.5,70.6,29.98,West,281,0.0,0.0,97,0.00,,---,0.00,VWS V14.01,2013-09-07 08:15:00,
2013-09-07 03:20:00,71.5,70.6,29.98,West,281,0.0,0.0,97,0.00,,---,0.00,VWS V14.01,2013-09-07 08:20:00,
2013-09-07 03:25:00,71.5,70.6,29.98,West,281,0.0,0.0,97,0.00,,---,0.00,VWS V14.01,2013-09-07 08:25:00,
2013-09-07 03:30:00,71.4,70.5,29.99,West,281,0.0,0.0,97,0.00,,---,0.00,VWS V14.01,2013-09-07 08:30:00,
2013-09-07 03:35:00,71.4,70.5,29.98,West,281,0.0,0.0,97,0.00,,---,0.00,VWS V14.01,2013-09-07 08:35:00,
2013-09-07 03:36:00,71.5,70.6,29.98,West,281,0.0,0.0,97,0.00,,---,0.00,VWS V14.01,2013-09-07 08:36:00,
2013-09-07 03:45:00,71.4,70.5,29.98,West,281,0.0,0.0,97,0.00,,---,0.00,VWS V14.01,2013-09-07 08:45:00,
2013-09-07 03:50:00,71.3,70.4,29.99,West,281,0.0,0.0,97,0.00,,---,0.00,VWS V14.01,2013-09-07 08:50:00,
2013-09-07 03:55:00,71.1,70.2,29.99,West,281,0.0,0.0,97,0.00,,---,0.00,VWS V14.01,2013-09-07 08:55:00,
2013-09-07 04:00:00,71.1,70.2,29.99,West,281,0.0,0.0,97,0.00,,---,0.00,VWS V14.01,2013-09-07 09:00:00,
2013-09-07 04:05:00,71.0,70.1,29.99,West,281,0.0,0.0,97,0.00,,---,0.00,VWS V14.01,2013-09-07 09:05:00,
2013-09-07 04:10:00,71.1,70.2,29.99,West,281,0.0,0.0,97,0.00,,---,0.00,VWS V14.01,2013-09-07 09:10:00,
2013-09-07 04:15:00,71.2,70.3,30.00,West,281,0.0,0.0,97,0.00,,---,0.00,VWS V14.01,2013-09-07 09:15:00,
2013-09-07 04:20:00,71.0,70.1,29.99,West,281,0.0,0.0,97,0.00,,---,0.00,VWS V14.01,2013-09-07 09:20:00,
2013-09-07 04:25:00,70.8,69.9,29.99,West,281,0.0,0.0,97,0.00,,---,0.00,VWS V14.01,2013-09-07 09:25:00,
2013-09-07 04:30:00,70.8,69.9,29.99,West,281,0.0,0.0,97,0.00,,---,0.00,VWS V14.01,2013-09-07 09:30:00,
2013-09-07 04:35:00,70.7,69.8,29.99,West,281,0.0,0.0,97,0.00,,---,0.00,VWS V14.01,2013-09-07 09:35:00,
2013-09-07 04:36:00,70.8,69.9,29.99,West,281,0.0,0.0,97,0.00,,---,0.00,VWS V14.01,2013-09-07 09:36:00,
2013-09-07 04:40:00,70.7,69.8,30.00,West,281,0.0,0.0,97,0.00,,---,0.00,VWS V14.01,2013-09-07 09:40:00,
2013-09-07 04:45:00,70.7,69.8,30.00,West,281,0.0,0.0,97,0.00,,---,0.00,VWS V14.01,2013-09-07 09:45:00,
2013-09-07 04:50:00,70.6,69.7,30.00,West,281,0.0,0.0,97,0.00,,---,0.00,VWS V14.01,2013-09-07 09:50:00,
2013-09-07 04:55:00,70.6,69.7,30.00,West,281,0.0,0.0,97,0.00,,---,0.00,VWS V14.01,2013-09-07 09:55:00,
2013-09-07 05:00:00,70.6,70.0,30.00,West,281,0.0,0.0,98,0.00,,---,0.00,VWS V14.01,2013-09-07 10:00:00,
2013-09-07 05:05:00,70.7,69.8,30.00,West,281,0.0,0.0,97,0.00,,---,0.00,VWS V14.01,2013-09-07 10:05:00,
2013-09-07 05:06:00,70.7,69.8,30.00,West,281,0.0,0.0,97,0.00,,---,0.00,VWS V14.01,2013-09-07 10:06:00,
2013-09-07 05:10:00,70.6,69.7,30.00,West,281,0.0,0.0,97,0.00,,---,0.00,VWS V14.01,2013-09-07 10:10:00,
2013-09-07 05:15:00,70.5,69.9,30.00,West,281,0.0,0.0,98,0.00,,---,0.00,VWS V14.01,2013-09-07 10:15:00,
2013-09-07 05:20:00,70.3,69.4,30.00,West,281,0.0,0.0,97,0.00,,---,0.00,VWS V14.01,2013-09-07 10:20:00,
2013-09-07 05:25:00,70.3,69.4,30.01,West,281,0.0,0.0,97,0.00,,---,0.00,VWS V14.01,2013-09-07 10:25:00,
2013-09-07 05:30:00,70.3,69.4,30.01,West,281,0.0,0.0,97,0.00,,---,0.00,VWS V14.01,2013-09-07 10:30:00,
2013-09-07 05:36:00,70.3,69.4,30.01,West,281,0.0,0.0,97,0.00,,---,0.00,VWS V14.01,2013-09-07 10:36:00,
2013-09-07 05:41:00,70.3,69.7,30.01,West,281,0.0,0.0,98,0.00,,---,0.00,VWS V14.01,2013-09-07 10:41:00,
2013-09-07 05:46:00,70.4,69.8,30.02,West,281,0.0,0.0,98,0.00,,---,0.00,VWS V14.01,2013-09-07 10:46:00,
2013-09-07 05:51:00,70.4,69.8,30.02,West,281,0.0,0.0,98,0.00,,---,0.00,VWS V14.01,2013-09-07 10:51:00,
2013-09-07 05:56:00,70.1,69.2,30.02,West,281,0.0,0.0,97,0.00,,---,0.00,VWS V14.01,2013-09-07 10:56:00,
2013-09-07 06:01:00,70.2,69.6,30.02,West,281,0.0,0.0,98,0.00,,---,0.00,VWS V14.01,2013-09-07 11:01:00,
2013-09-07 06:06:00,70.1,69.5,30.02,West,281,0.0,0.0,98,0.00,,---,0.00,VWS V14.01,2013-09-07 11:06:00,
2013-09-07 06:11:00,70.3,69.7,30.02,West,281,0.0,0.0,98,0.00,,---,0.00,VWS V14.01,2013-09-07 11:11:00,
2013-09-07 06:16:00,70.3,69.7,30.02,West,281,0.0,0.0,98,0.00,,---,0.00,VWS V14.01,2013-09-07 11:16:00,
2013-09-07 06:21:00,70.3,69.7,30.03,West,281,0.0,0.0,98,0.00,,---,0.00,VWS V14.01,2013-09-07 11:21:00,
2013-09-07 06:26:00,70.3,69.7,30.03,West,281,0.0,0.0,98,0.00,,---,0.00,VWS V14.01,2013-09-07 11:26:00,
2013-09-07 06:31:00,70.1,69.5,30.03,West,281,0.0,0.0,98,0.00,,---,0.00,VWS V14.01,2013-09-07 11:31:00,
2013-09-07 06:36:00,70.1,69.5,30.03,West,281,0.0,0.0,98,0.00,,---,0.00,VWS V14.01,2013-09-07 11:36:00,
2013-09-07 06:41:00,70.2,69.6,30.03,West,281,0.0,0.0,98,0.00,,---,0.00,VWS V14.01,2013-09-07 11:41:00,
2013-09-07 06:46:00,70.1,69.5,30.03,West,281,0.0,0.0,98,0.00,,---,0.00,VWS V14.01,2013-09-07 11:46:00,
2013-09-07 06:51:00,69.9,69.3,30.03,West,281,0.0,0.0,98,0.00,,---,0.00,VWS V14.01,2013-09-07 11:51:00,
2013-09-07 06:56:00,69.9,69.3,30.03,West,281,0.0,0.0,98,0.00,,---,0.00,VWS V14.01,2013-09-07 11:56:00,
2013-09-07 07:01:00,69.9,69.3,30.03,West,281,0.0,0.0,98,0.00,,---,0.00,VWS V14.01,2013-09-07 12:01:00,
2013-09-07 07:06:00,69.9,69.3,30.03,West,281,0.0,0.0,98,0.00,,---,0.00,VWS V14.01,2013-09-07 12:06:00,
2013-09-07 07:11:00,69.8,69.2,30.03,West,281,0.0,0.0,98,0.00,,---,0.00,VWS V14.01,2013-09-07 12:11:00,
2013-09-07 07:16:00,69.8,69.2,30.04,West,281,0.0,0.0,98,0.00,,---,0.00,VWS V14.01,2013-09-07 12:16:00,
2013-09-07 07:21:00,69.9,69.3,30.04,West,281,0.0,0.0,98,0.00,,---,0.00,VWS V14.01,2013-09-07 12:21:00,
2013-09-07 07:26:00,70.1,69.5,30.04,West,281,0.0,0.0,98,0.00,,---,0.00,VWS V14.01,2013-09-07 12:26:00,
2013-09-07 07:31:00,70.3,69.7,30.04,West,281,0.0,0.0,98,0.00,,---,0.00,VWS V14.01,2013-09-07 12:31:00,
2013-09-07 07:36:00,70.5,69.9,30.04,West,281,0.0,0.0,98,0.00,,---,0.00,VWS V14.01,2013-09-07 12:36:00,
2013-09-07 07:41:00,70.7,70.1,30.04,West,281,0.0,0.0,98,0.00,,---,0.00,VWS V14.01,2013-09-07 12:41:00,
2013-09-07 07:46:00,70.9,70.3,30.04,West,281,0.0,0.0,98,0.00,,---,0.00,VWS V14.01,2013-09-07 12:46:00,
2013-09-07 07:51:00,71.1,70.5,30.05,West,281,0.0,0.0,98,0.00,,---,0.00,VWS V14.01,2013-09-07 12:51:00,
2013-09-07 07:56:00,71.2,70.6,30.05,West,281,0.0,0.0,98,0.00,,---,0.00,VWS V14.01,2013-09-07 12:56:00,
2013-09-07 08:01:00,71.6,71.0,30.05,West,281,0.0,0.0,98,0.00,,---,0.00,VWS V14.01,2013-09-07 13:01:00,
2013-09-07 08:06:00,71.8,71.2,30.05,West,281,0.0,0.0,98,0.00,,---,0.00,VWS V14.01,2013-09-07 13:06:00,
2013-09-07 08:11:00,72.1,71.5,30.05,West,281,0.0,0.0,98,0.00,,---,0.00,VWS V14.01,2013-09-07 13:11:00,
2013-09-07 08:16:00,72.6,72.0,30.05,West,281,0.0,0.0,98,0.00,,---,0.00,VWS V14.01,2013-09-07 13:16:00,
2013-09-07 08:21:00,72.9,72.3,30.05,West,281,0.0,0.0,98,0.00,,---,0.00,VWS V14.01,2013-09-07 13:21:00,
2013-09-07 08:26:00,73.4,72.8,30.05,West,281,0.0,0.0,98,0.00,,---,0.00,VWS V14.01,2013-09-07 13:26:00,
2013-09-07 08:31:00,73.7,73.1,30.05,West,281,0.0,0.0,98,0.00,,---,0.00,VWS V14.01,2013-09-07 13:31:00,
2013-09-07 08:36:00,74.4,73.8,30.05,West,281,0.0,0.0,98,0.00,,---,0.00,VWS V14.01,2013-09-07 13:36:00,
2013-09-07 08:46:00,76.1,75.2,30.05,West,281,0.0,1.0,97,0.00,,---,0.00,VWS V14.01,2013-09-07 13:46:00,
2013-09-07 08:51:00,76.9,75.7,30.05,West,281,0.0,1.0,96,0.00,,---,0.00,VWS V14.01,2013-09-07 13:51:00,
2013-09-07 08:56:00,77.8,75.9,30.05,West,281,0.0,1.0,94,0.00,,---,0.00,VWS V14.01,2013-09-07 13:56:00,
2013-09-07 09:01:00,78.4,75.9,30.05,West,281,0.0,1.0,92,0.00,,---,0.00,VWS V14.01,2013-09-07 14:01:00,
2013-09-07 09:06:00,79.0,76.2,30.05,West,281,0.0,1.0,91,0.00,,---,0.00,VWS V14.01,2013-09-07 14:06:00,
2013-09-07 09:11:00,79.8,76.6,30.05,West,281,0.0,0.0,90,0.00,,---,0.00,VWS V14.01,2013-09-07 14:11:00,
2013-09-07 09:16:00,80.7,76.8,30.05,West,281,1.0,1.0,88,0.00,,---,0.00,VWS V14.01,2013-09-07 14:16:00,
2013-09-07 09:21:00,80.9,77.4,30.06,West,281,0.0,1.0,89,0.00,,---,0.00,VWS V14.01,2013-09-07 14:21:00,
2013-09-07 09:26:00,80.6,77.1,30.05,West,281,0.0,2.0,89,0.00,,---,0.00,VWS V14.01,2013-09-07 14:26:00,
2013-09-07 09:31:00,81.4,77.2,30.06,West,281,0.0,2.0,87,0.00,,---,0.00,VWS V14.01,2013-09-07 14:31:00,
2013-09-07 09:36:00,81.8,76.8,30.06,ENE,65,0.0,0.0,85,0.00,,---,0.00,VWS V14.01,2013-09-07 14:36:00,
2013-09-07 09:41:00,82.7,77.7,30.06,North,355,1.0,1.0,85,0.00,,---,0.00,VWS V14.01,2013-09-07 14:41:00,
2013-09-07 09:46:00,82.9,76.5,30.06,ESE,115,0.0,4.0,81,0.00,,---,0.00,VWS V14.01,2013-09-07 14:46:00,
2013-09-07 09:51:00,83.5,77.1,30.06,East,100,0.0,4.0,81,0.00,,---,0.00,VWS V14.01,2013-09-07 14:51:00,
2013-09-07 09:56:00,83.2,77.5,30.06,East,100,0.0,4.0,83,0.00,,---,0.00,VWS V14.01,2013-09-07 14:56:00,
2013-09-07 10:01:00,83.6,77.5,30.06,East,81,1.0,4.0,82,0.00,,---,0.00,VWS V14.01,2013-09-07 15:01:00,
2013-09-07 10:06:00,84.3,77.5,30.06,WNW,293,3.0,4.0,80,0.00,,---,0.00,VWS V14.01,2013-09-07 15:06:00,
2013-09-07 10:11:00,84.6,77.4,30.06,NE,46,0.0,3.0,79,0.00,,---,0.00,VWS V14.01,2013-09-07 15:11:00,
2013-09-07 10:16:00,84.9,77.7,30.06,WNW,288,1.0,3.0,79,0.00,,---,0.00,VWS V14.01,2013-09-07 15:16:00,
2013-09-07 10:21:00,85.0,76.2,30.06,SSW,213,1.0,3.0,75,0.00,,---,0.00,VWS V14.01,2013-09-07 15:21:00,
2013-09-07 10:26:00,85.5,77.1,30.06,SSW,213,0.0,3.0,76,0.00,,---,0.00,VWS V14.01,2013-09-07 15:26:00,
2013-09-07 10:31:00,85.7,78.1,30.06,South,176,1.0,3.0,78,0.00,,---,0.00,VWS V14.01,2013-09-07 15:31:00,
2013-09-07 10:36:00,85.5,77.9,30.05,ESE,112,0.0,3.0,78,0.00,,---,0.00,VWS V14.01,2013-09-07 15:36:00,
2013-09-07 10:41:00,86.2,77.3,30.05,NNE,15,0.0,3.0,75,0.00,,---,0.00,VWS V14.01,2013-09-07 15:41:00,
2013-09-07 10:46:00,85.5,76.3,30.05,WNW,299,2.0,3.0,74,0.00,,---,0.00,VWS V14.01,2013-09-07 15:46:00,
2013-09-07 10:51:00,86.0,77.9,30.05,West,279,0.0,3.0,77,0.00,,---,0.00,VWS V14.01,2013-09-07 15:51:00,
2013-09-07 10:56:00,86.3,76.2,30.05,West,262,3.0,4.0,72,0.00,,---,0.00,VWS V14.01,2013-09-07 15:56:00,
2013-09-07 11:01:00,86.8,77.5,30.05,WNW,289,2.0,4.0,74,0.00,,---,0.00,VWS V14.01,2013-09-07 16:01:00,
2013-09-07 11:06:00,86.3,76.2,30.05,WNW,289,0.0,4.0,72,0.00,,---,0.00,VWS V14.01,2013-09-07 16:06:00,
2013-09-07 11:11:00,86.2,76.1,30.05,NW,318,0.0,2.0,72,0.00,,---,0.00,VWS V14.01,2013-09-07 16:11:00,
2013-09-07 11:16:00,86.6,76.1,30.05,NW,318,0.0,2.0,71,0.00,,---,0.00,VWS V14.01,2013-09-07 16:16:00,
2013-09-07 11:22:00,87.4,76.0,30.05,WNW,292,2.0,2.0,69,0.00,,---,0.00,VWS V14.01,2013-09-07 16:22:00,
2013-09-07 11:27:00,87.4,77.3,30.05,SW,221,3.0,3.0,72,0.00,,---,0.00,VWS V14.01,2013-09-07 16:27:00,
2013-09-07 11:32:00,87.4,75.6,30.05,WSW,248,0.0,4.0,68,0.00,,---,0.00,VWS V14.01,2013-09-07 16:32:00,
2013-09-07 11:36:00,87.8,75.5,30.05,North,5,0.0,4.0,67,0.00,,---,0.00,VWS V14.01,2013-09-07 16:36:00,
2013-09-07 11:37:00,87.8,76.4,30.05,North,5,0.0,0.0,69,0.00,,---,0.00,VWS V14.01,2013-09-07 16:37:00,
2013-09-07 11:42:00,86.8,76.3,30.05,WSW,254,0.0,2.0,71,0.00,,---,0.00,VWS V14.01,2013-09-07 16:42:00,
2013-09-07 11:47:00,87.5,77.4,30.05,WSW,255,0.0,2.0,72,0.00,,---,0.00,VWS V14.01,2013-09-07 16:47:00,
2013-09-07 11:52:00,88.3,76.8,30.05,ENE,66,0.0,3.0,69,0.00,,---,0.00,VWS V14.01,2013-09-07 16:52:00,
2013-09-07 11:57:00,88.8,76.0,30.04,SE,126,0.0,3.0,66,0.00,,---,0.00,VWS V14.01,2013-09-07 16:57:00,
2013-09-07 12:02:00,89.0,76.6,30.04,NE,51,0.0,3.0,67,0.00,,---,0.00,VWS V14.01,2013-09-07 17:02:00,
2013-09-07 12:06:00,89.7,77.3,30.04,ENE,74,2.0,3.0,67,0.00,,---,0.00,VWS V14.01,2013-09-07 17:06:00,
2013-09-07 12:07:00,89.7,76.4,30.04,ENE,65,2.0,3.0,65,0.00,,---,0.00,VWS V14.01,2013-09-07 17:07:00,
2013-09-07 12:12:00,89.2,75.0,30.04,ENE,78,1.0,4.0,63,0.00,,---,0.00,VWS V14.01,2013-09-07 17:12:00,
2013-09-07 12:17:00,88.8,76.0,30.04,East,99,0.0,4.0,66,0.00,,---,0.00,VWS V14.01,2013-09-07 17:17:00,
2013-09-07 12:22:00,87.8,76.4,30.04,SSW,204,1.0,4.0,69,0.00,,---,0.00,VWS V14.01,2013-09-07 17:22:00,
2013-09-07 12:27:00,87.8,75.9,30.04,West,260,0.0,4.0,68,0.00,,---,0.00,VWS V14.01,2013-09-07 17:27:00,
2013-09-07 12:32:00,88.7,75.4,30.03,ESE,115,0.0,4.0,65,0.00,,---,0.00,VWS V14.01,2013-09-07 17:32:00,
2013-09-07 12:37:00,89.6,76.3,30.03,East,97,1.0,2.0,65,0.00,,---,0.00,VWS V14.01,2013-09-07 17:37:00,
2013-09-07 12:42:00,90.3,78.3,30.03,SSW,195,0.0,4.0,68,0.00,,---,0.00,VWS V14.01,2013-09-07 17:42:00,
2013-09-07 12:47:00,91.0,76.7,30.03,NE,41,0.0,4.0,63,0.00,,---,0.00,VWS V14.01,2013-09-07 17:47:00,
2013-09-07 12:52:00,90.9,75.6,30.03,East,94,1.0,5.0,61,0.00,,---,0.00,VWS V14.01,2013-09-07 17:52:00,
2013-09-07 12:57:00,90.4,74.6,30.02,SW,214,2.0,6.0,60,0.00,,---,0.00,VWS V14.01,2013-09-07 17:57:00,
2013-09-07 13:02:00,91.1,74.8,30.02,SW,217,0.0,6.0,59,0.00,,---,0.00,VWS V14.01,2013-09-07 18:02:00,
2013-09-07 13:07:00,91.5,76.2,30.02,WSW,253,0.0,1.0,61,0.00,,---,0.00,VWS V14.01,2013-09-07 18:07:00,
2013-09-07 13:12:00,91.1,75.8,30.02,NW,321,0.0,3.0,61,0.00,,---,0.00,VWS V14.01,2013-09-07 18:12:00,
2013-09-07 13:17:00,91.7,75.8,30.02,ESE,121,0.0,3.0,60,0.00,,---,0.00,VWS V14.01,2013-09-07 18:17:00,
2013-09-07 13:22:00,91.5,75.2,30.01,ESE,121,1.0,3.0,59,0.00,,---,0.00,VWS V14.01,2013-09-07 18:22:00,
2013-09-07 13:27:00,92.0,75.1,30.01,East,101,1.0,3.0,58,0.00,,---,0.00,VWS V14.01,2013-09-07 18:27:00,
2013-09-07 13:32:00,91.7,76.3,30.01,East,101,0.0,3.0,61,0.00,,---,0.00,VWS V14.01,2013-09-07 18:32:00,
2013-09-07 13:36:00,91.1,73.8,30.00,East,88,0.0,3.0,57,0.00,,---,0.00,VWS V14.01,2013-09-07 18:36:00,
2013-09-07 13:37:00,91.1,73.8,30.00,East,88,0.0,0.0,57,0.00,,---,0.00,VWS V14.01,2013-09-07 18:37:00,
2013-09-07 13:42:00,91.6,74.7,30.00,West,276,3.0,4.0,58,0.00,,---,0.00,VWS V14.01,2013-09-07 18:42:00,
2013-09-07 13:47:00,91.7,73.2,30.00,West,269,0.0,4.0,55,0.00,,---,0.00,VWS V14.01,2013-09-07 18:47:00,
2013-09-07 13:52:00,90.1,74.3,30.00,SW,217,0.0,4.0,60,0.00,,---,0.00,VWS V14.01,2013-09-07 18:52:00,
2013-09-07 13:57:00,91.5,73.1,29.99,West,265,4.0,5.0,55,0.00,,---,0.00,VWS V14.01,2013-09-07 18:57:00,
2013-09-07 14:02:00,92.4,73.9,29.99,SW,229,0.0,5.0,55,0.00,,---,0.00,VWS V14.01,2013-09-07 19:02:00,
2013-09-07 14:06:00,92.6,74.6,29.99,SE,128,1.0,5.0,56,0.00,,---,0.00,VWS V14.01,2013-09-07 19:06:00,
2013-09-07 14:07:00,92.6,73.5,29.99,SE,126,1.0,1.0,54,0.00,,---,0.00,VWS V14.01,2013-09-07 19:07:00,
2013-09-07 14:12:00,92.6,75.2,29.99,West,259,1.0,3.0,57,0.00,,---,0.00,VWS V14.01,2013-09-07 19:12:00,
2013-09-07 14:17:00,93.1,72.9,29.98,WNW,292,2.0,6.0,52,0.00,,---,0.00,VWS V14.01,2013-09-07 19:17:00,
2013-09-07 14:22:00,93.1,75.1,29.98,NW,325,0.0,6.0,56,0.00,,---,0.00,VWS V14.01,2013-09-07 19:22:00,
2013-09-07 14:27:00,92.2,73.7,29.98,ESE,103,0.0,6.0,55,0.00,,---,0.00,VWS V14.01,2013-09-07 19:27:00,
2013-09-07 14:32:00,91.4,74.0,29.98,East,97,0.0,6.0,57,0.00,,---,0.00,VWS V14.01,2013-09-07 19:32:00,
2013-09-07 14:36:00,91.0,72.6,29.98,ENE,62,0.0,6.0,55,0.00,,---,0.00,VWS V14.01,2013-09-07 19:36:00,
2013-09-07 14:42:00,90.8,71.9,29.97,NNE,25,1.0,2.0,54,0.00,,---,0.00,VWS V14.01,2013-09-07 19:42:00,
2013-09-07 14:47:00,90.2,71.9,29.97,NNE,29,0.0,3.0,55,0.00,,---,0.00,VWS V14.01,2013-09-07 19:47:00,
2013-09-07 14:52:00,89.1,74.9,29.97,NNE,29,0.0,3.0,63,0.00,,---,0.00,VWS V14.01,2013-09-07 19:52:00,
2013-09-07 14:57:00,88.7,76.8,29.96,NNE,29,0.0,3.0,68,0.00,,---,0.00,VWS V14.01,2013-09-07 19:57:00,
2013-09-07 15:02:00,90.8,72.9,29.96,SE,126,0.0,3.0,56,0.00,,---,0.00,VWS V14.01,2013-09-07 20:02:00,
2013-09-07 15:07:00,92.9,74.4,29.96,West,269,0.0,2.0,55,0.00,,---,0.00,VWS V14.01,2013-09-07 20:07:00,
2013-09-07 15:12:00,93.6,71.6,29.96,East,98,0.0,2.0,49,0.00,,---,0.00,VWS V14.01,2013-09-07 20:12:00,
2013-09-07 15:17:00,93.3,72.5,29.95,SSE,155,0.0,2.0,51,0.00,,---,0.00,VWS V14.01,2013-09-07 20:17:00,
2013-09-07 15:22:00,92.6,72.4,29.95,SE,125,0.0,2.0,52,0.00,,---,0.00,VWS V14.01,2013-09-07 20:22:00,
2013-09-07 15:27:00,91.5,73.1,29.95,East,96,0.0,2.0,55,0.00,,---,0.00,VWS V14.01,2013-09-07 20:27:00,
2013-09-07 15:32:00,90.6,75.3,29.95,East,97,0.0,2.0,61,0.00,,---,0.00,VWS V14.01,2013-09-07 20:32:00,
2013-09-07 15:36:00,90.1,73.8,29.94,East,97,0.0,2.0,59,0.00,,---,0.00,VWS V14.01,2013-09-07 20:36:00,
2013-09-07 15:37:00,90.3,74.5,29.94,East,97,0.0,0.0,60,0.00,,---,0.00,VWS V14.01,2013-09-07 20:37:00,
2013-09-07 15:42:00,91.9,74.5,29.94,East,97,0.0,0.0,57,0.00,,---,0.00,VWS V14.01,2013-09-07 20:42:00,
2013-09-07 15:47:00,92.2,72.6,29.94,East,95,0.0,0.0,53,0.00,,---,0.00,VWS V14.01,2013-09-07 20:47:00,
2013-09-07 15:52:00,93.2,71.8,29.94,East,98,0.0,2.0,50,0.00,,---,0.00,VWS V14.01,2013-09-07 20:52:00,
2013-09-07 15:57:00,93.0,72.2,29.94,NE,42,0.0,2.0,51,0.00,,---,0.00,VWS V14.01,2013-09-07 20:57:00,
2013-09-07 16:02:00,92.4,70.5,29.93,NE,42,0.0,2.0,49,0.00,,---,0.00,VWS V14.01,2013-09-07 21:02:00,
2013-09-07 16:06:00,92.8,72.6,29.93,NE,40,0.0,2.0,52,0.00,,---,0.00,VWS V14.01,2013-09-07 21:06:00,
2013-09-07 16:07:00,92.6,71.3,29.93,NE,41,0.0,1.0,50,0.00,,---,0.00,VWS V14.01,2013-09-07 21:07:00,
2013-09-07 16:12:00,92.6,69.4,29.93,East,89,0.0,3.0,47,0.00,,---,0.00,VWS V14.01,2013-09-07 21:12:00,
2013-09-07 16:17:00,93.3,72.5,29.93,ENE,61,0.0,5.0,51,0.00,,---,0.00,VWS V14.01,2013-09-07 21:17:00,
2013-09-07 16:22:00,93.1,72.3,29.93,East,82,0.0,5.0,51,0.00,,---,0.00,VWS V14.01,2013-09-07 21:22:00,
2013-09-07 16:27:00,93.1,70.5,29.93,East,83,0.0,5.0,48,0.00,,---,0.00,VWS V14.01,2013-09-07 21:27:00,
2013-09-07 16:32:00,93.1,70.5,29.93,East,98,0.0,5.0,48,0.00,,---,0.00,VWS V14.01,2013-09-07 21:32:00,
2013-09-07 16:36:00,92.5,70.6,29.93,East,98,0.0,5.0,49,0.00,,---,0.00,VWS V14.01,2013-09-07 21:36:00,
2013-09-07 16:42:00,92.7,70.8,29.93,South,174,1.0,1.0,49,0.00,,---,0.00,VWS V14.01,2013-09-07 21:42:00,
2013-09-07 16:47:00,92.1,69.6,29.93,SSE,153,0.0,2.0,48,0.00,,---,0.00,VWS V14.01,2013-09-07 21:47:00,
2013-09-07 16:52:00,92.8,73.2,29.93,ENE,78,0.0,2.0,53,0.00,,---,0.00,VWS V14.01,2013-09-07 21:52:00,
2013-09-07 16:57:00,92.7,70.2,29.93,East,79,0.0,2.0,48,0.00,,---,0.00,VWS V14.01,2013-09-07 21:57:00,
2013-09-07 17:02:00,92.2,71.5,29.93,East,79,0.0,2.0,51,0.00,,---,0.00,VWS V14.01,2013-09-07 22:02:00,
2013-09-07 17:06:00,92.1,69.0,29.93,East,93,0.0,3.0,47,0.00,,---,0.00,VWS V14.01,2013-09-07 22:06:00,
2013-09-07 17:07:00,92.3,67.9,29.93,East,94,0.0,0.0,45,0.00,,---,0.00,VWS V14.01,2013-09-07 22:07:00,
2013-09-07 17:12:00,92.4,69.3,29.93,East,94,1.0,1.0,47,0.00,,---,0.00,VWS V14.01,2013-09-07 22:12:00,
2013-09-07 17:17:00,92.4,69.3,29.93,East,93,0.0,2.0,47,0.00,,---,0.00,VWS V14.01,2013-09-07 22:17:00,
2013-09-07 17:23:00,91.7,69.8,29.93,East,94,0.0,2.0,49,0.00,,---,0.00,VWS V14.01,2013-09-07 22:23:00,
2013-09-07 17:28:00,90.9,70.8,29.94,East,94,0.0,2.0,52,0.00,,---,0.00,VWS V14.01,2013-09-07 22:28:00,
2013-09-07 17:33:00,91.5,67.8,29.94,East,93,0.0,2.0,46,0.00,,---,0.00,VWS V14.01,2013-09-07 22:33:00,
2013-09-07 17:36:00,91.8,68.1,29.94,East,93,0.0,2.0,46,0.00,,---,0.00,VWS V14.01,2013-09-07 22:36:00,
2013-09-07 17:38:00,91.7,69.2,29.94,East,93,0.0,0.0,48,0.00,,---,0.00,VWS V14.01,2013-09-07 22:38:00,
2013-09-07 17:43:00,91.4,70.7,29.94,East,93,0.0,0.0,51,0.00,,---,0.00,VWS V14.01,2013-09-07 22:43:00,
2013-09-07 17:48:00,90.0,71.7,29.94,East,93,0.0,0.0,55,0.00,,---,0.00,VWS V14.01,2013-09-07 22:48:00,
2013-09-07 17:53:00,88.9,71.2,29.94,SSW,205,0.0,0.0,56,0.00,,---,0.00,VWS V14.01,2013-09-07 22:53:00,
2013-09-07 17:58:00,88.3,72.7,29.94,WSW,242,0.0,3.0,60,0.00,,---,0.00,VWS V14.01,2013-09-07 22:58:00,
2013-09-07 18:03:00,87.6,73.9,29.94,WSW,242,0.0,3.0,64,0.00,,---,0.00,VWS V14.01,2013-09-07 23:03:00,
2013-09-07 18:06:00,87.1,72.5,29.94,WSW,242,0.0,3.0,62,0.00,,---,0.00,VWS V14.01,2013-09-07 23:06:00,
2013-09-07 18:13:00,87.4,73.7,29.94,North,355,0.0,1.0,64,0.00,,---,0.00,VWS V14.01,2013-09-07 23:13:00,
2013-09-07 18:18:00,87.0,73.8,29.94,North,355,0.0,1.0,65,0.00,,---,0.00,VWS V14.01,2013-09-07 23:18:00,
2013-09-07 18:23:00,86.0,74.2,29.94,North,355,0.0,1.0,68,0.00,,---,0.00,VWS V14.01,2013-09-07 23:23:00,
2013-09-07 18:28:00,85.0,75.0,29.94,North,355,0.0,1.0,72,0.00,,---,0.00,VWS V14.01,2013-09-07 23:28:00,
2013-09-07 18:33:00,83.9,74.3,29.94,North,355,0.0,1.0,73,0.00,,---,0.00,VWS V14.01,2013-09-07 23:33:00,
2013-09-07 18:36:00,83.6,74.4,29.95,North,355,0.0,1.0,74,0.00,,---,0.00,VWS V14.01,2013-09-07 23:36:00,
2013-09-07 18:38:00,83.4,74.2,29.95,North,355,0.0,0.0,74,0.00,,---,0.00,VWS V14.01,2013-09-07 23:38:00,
2013-09-07 18:43:00,83.2,74.1,29.95,North,355,0.0,0.0,74,0.00,,---,0.00,VWS V14.01,2013-09-07 23:43:00,
2013-09-07 18:48:00,83.0,75.1,29.95,North,355,0.0,0.0,77,0.00,,---,0.00,VWS V14.01,2013-09-07 23:48:00,
2013-09-07 18:53:00,82.7,74.4,29.95,North,355,0.0,0.0,76,0.00,,---,0.00,VWS V14.01,2013-09-07 23:53:00,
2013-09-07 18:58:00,82.9,73.8,29.95,North,355,0.0,0.0,74,0.00,,---,0.00,VWS V14.01,2013-09-07 23:58:00,
2013-09-07 19:03:00,82.8,73.3,29.96,North,355,0.0,0.0,73,0.00,,---,0.00,VWS V14.01,2013-09-08 00:03:00,
2013-09-07 19:06:00,82.8,74.1,29.96,North,355,0.0,0.0,75,0.00,,---,0.00,VWS V14.01,2013-09-08 00:06:00,
2013-09-07 19:13:00,82.7,73.6,29.96,North,355,0.0,0.0,74,0.00,,---,0.00,VWS V14.01,2013-09-08 00:13:00,
2013-09-07 19:18:00,82.2,73.9,29.96,North,355,0.0,0.0,76,0.00,,---,0.00,VWS V14.01,2013-09-08 00:18:00,
2013-09-07 19:23:00,81.8,73.9,29.96,North,355,0.0,0.0,77,0.00,,---,0.00,VWS V14.01,2013-09-08 00:23:00,
2013-09-07 19:28:00,81.7,74.2,29.96,North,355,0.0,0.0,78,0.00,,---,0.00,VWS V14.01,2013-09-08 00:28:00,
2013-09-07 19:33:00,81.3,74.2,29.96,North,355,0.0,0.0,79,0.00,,---,0.00,VWS V14.01,2013-09-08 00:33:00,
2013-09-07 19:36:00,81.1,74.3,29.96,North,355,0.0,0.0,80,0.00,,---,0.00,VWS V14.01,2013-09-08 00:36:00,
2013-09-07 19:38:00,81.1,74.3,29.96,North,355,0.0,0.0,80,0.00,,---,0.00,VWS V14.01,2013-09-08 00:38:00,
2013-09-07 19:43:00,80.7,74.0,29.96,North,355,0.0,0.0,80,0.00,,---,0.00,VWS V14.01,2013-09-08 00:43:00,
2013-09-07 19:48:00,80.3,73.9,29.96,North,355,0.0,0.0,81,0.00,,---,0.00,VWS V14.01,2013-09-08 00:48:00,
2013-09-07 19:53:00,79.9,73.9,29.96,North,355,0.0,0.0,82,0.00,,---,0.00,VWS V14.01,2013-09-08 00:53:00,
2013-09-07 19:58:00,79.4,73.1,29.96,North,355,0.0,0.0,81,0.00,,---,0.00,VWS V14.01,2013-09-08 00:58:00,
2013-09-07 20:03:00,79.0,73.0,29.96,SW,236,0.0,2.0,82,0.00,,---,0.00,VWS V14.01,2013-09-08 01:03:00,
2013-09-07 20:06:00,78.9,72.9,29.96,West,277,1.0,2.0,82,0.00,,---,0.00,VWS V14.01,2013-09-08 01:06:00,
2013-09-07 20:08:00,78.9,72.9,29.96,West,276,0.0,2.0,82,0.00,,---,0.00,VWS V14.01,2013-09-08 01:08:00,
2013-09-07 20:13:00,78.7,72.8,29.96,SW,216,5.0,5.0,82,0.00,,---,0.00,VWS V14.01,2013-09-08 01:13:00,
2013-09-07 20:18:00,79.8,72.7,29.97,West,262,4.0,9.0,79,0.00,,---,0.00,VWS V14.01,2013-09-08 01:18:00,
2013-09-07 20:23:00,80.7,72.8,29.97,SSW,204,2.0,9.0,77,0.00,,---,0.00,VWS V14.01,2013-09-08 01:23:00,
2013-09-07 20:28:00,80.9,72.6,29.97,SW,216,4.0,9.0,76,0.00,,---,0.00,VWS V14.01,2013-09-08 01:28:00,
2013-09-07 20:33:00,80.9,72.2,29.97,WSW,251,2.0,9.0,75,0.00,,---,0.00,VWS V14.01,2013-09-08 01:33:00,
2013-09-07 20:36:00,80.9,72.2,29.97,WSW,250,0.0,9.0,75,0.00,,---,0.00,VWS V14.01,2013-09-08 01:36:00,
2013-09-07 20:38:00,80.6,72.3,29.97,WSW,248,1.0,2.0,76,0.00,,---,0.00,VWS V14.01,2013-09-08 01:38:00,
2013-09-07 20:43:00,80.2,72.3,29.97,WSW,250,0.0,2.0,77,0.00,,---,0.00,VWS V14.01,2013-09-08 01:43:00,
2013-09-07 20:48:00,79.8,72.7,29.98,WSW,250,0.0,2.0,79,0.00,,---,0.00,VWS V14.01,2013-09-08 01:48:00,
2013-09-07 20:53:00,79.3,72.6,29.98,WSW,250,0.0,2.0,80,0.00,,---,0.00,VWS V14.01,2013-09-08 01:53:00,
2013-09-07 20:58:00,78.7,72.0,29.98,WNW,294,1.0,4.0,80,0.00,,---,0.00,VWS V14.01,2013-09-08 01:58:00,
2013-09-07 21:03:00,78.6,72.3,29.98,WNW,283,0.0,4.0,81,0.00,,---,0.00,VWS V14.01,2013-09-08 02:03:00,
2013-09-07 21:06:00,78.4,72.4,29.98,WNW,283,0.0,4.0,82,0.00,,---,0.00,VWS V14.01,2013-09-08 02:06:00,
2013-09-07 21:08:00,78.3,72.4,29.98,WNW,283,0.0,0.0,82,0.00,,---,0.00,VWS V14.01,2013-09-08 02:08:00,
2013-09-07 21:13:00,78.1,72.2,29.98,WNW,283,0.0,0.0,82,0.00,,---,0.00,VWS V14.01,2013-09-08 02:13:00,
2013-09-07 21:18:00,78.0,71.7,29.98,WNW,283,0.0,0.0,81,0.00,,---,0.00,VWS V14.01,2013-09-08 02:18:00,
2013-09-07 21:23:00,77.8,71.9,29.98,WNW,283,0.0,0.0,82,0.00,,---,0.00,VWS V14.01,2013-09-08 02:23:00,
2013-09-07 21:28:00,77.1,71.5,29.98,WNW,283,0.0,0.0,83,0.00,,---,0.00,VWS V14.01,2013-09-08 02:28:00,
2013-09-07 21:33:00,76.6,71.4,29.98,WNW,283,0.0,0.0,84,0.00,,---,0.00,VWS V14.01,2013-09-08 02:33:00,
2013-09-07 21:36:00,76.5,71.7,29.98,WNW,283,0.0,0.0,85,0.00,,---,0.00,VWS V14.01,2013-09-08 02:36:00,
2013-09-07 21:38:00,76.4,71.6,29.98,WNW,283,0.0,0.0,85,0.00,,---,0.00,VWS V14.01,2013-09-08 02:38:00,
2013-09-07 21:43:00,76.1,71.3,29.99,WNW,283,0.0,0.0,85,0.00,,---,0.00,VWS V14.01,2013-09-08 02:43:00,
2013-09-07 21:48:00,75.8,71.3,29.99,West,271,0.0,1.0,86,0.00,,---,0.00,VWS V14.01,2013-09-08 02:48:00,
2013-09-07 21:53:00,75.7,71.2,29.99,West,271,0.0,1.0,86,0.00,,---,0.00,VWS V14.01,2013-09-08 02:53:00,
2013-09-07 21:58:00,75.3,71.2,29.99,West,271,0.0,1.0,87,0.00,,---,0.00,VWS V14.01,2013-09-08 02:58:00,
2013-09-07 22:03:00,75.2,71.1,29.99,West,271,0.0,1.0,87,0.00,,---,0.00,VWS V14.01,2013-09-08 03:03:00,
2013-09-07 22:06:00,75.2,71.1,30.00,West,271,0.0,1.0,87,0.00,,---,0.00,VWS V14.01,2013-09-08 03:06:00,
2013-09-07 22:08:00,74.9,70.8,29.99,West,271,0.0,0.0,87,0.00,,---,0.00,VWS V14.01,2013-09-08 03:08:00,
2013-09-07 22:13:00,74.5,70.7,30.00,West,271,0.0,0.0,88,0.00,,---,0.00,VWS V14.01,2013-09-08 03:13:00,
2013-09-07 22:18:00,74.6,70.5,29.99,West,271,0.0,0.0,87,0.00,,---,0.00,VWS V14.01,2013-09-08 03:18:00,
2013-09-07 22:23:00,74.6,70.5,29.99,West,271,0.0,0.0,87,0.00,,---,0.00,VWS V14.01,2013-09-08 03:23:00,
2013-09-07 22:28:00,74.6,70.5,29.99,West,271,0.0,0.0,87,0.00,,---,0.00,VWS V14.01,2013-09-08 03:28:00,
2013-09-07 22:33:00,74.3,70.5,29.99,West,271,0.0,0.0,88,0.00,,---,0.00,VWS V14.01,2013-09-08 03:33:00,
2013-09-07 22:36:00,74.0,70.2,29.99,West,271,0.0,0.0,88,0.00,,---,0.00,VWS V14.01,2013-09-08 03:36:00,
2013-09-07 22:38:00,73.8,70.4,29.99,West,271,0.0,0.0,89,0.00,,---,0.00,VWS V14.01,2013-09-08 03:38:00,
2013-09-07 22:43:00,74.0,70.2,29.99,West,271,0.0,0.0,88,0.00,,---,0.00,VWS V14.01,2013-09-08 03:43:00,
2013-09-07 22:48:00,73.8,70.4,29.99,West,271,0.0,0.0,89,0.00,,---,0.00,VWS V14.01,2013-09-08 03:48:00,
2013-09-07 22:53:00,73.6,70.2,29.99,West,271,0.0,0.0,89,0.00,,---,0.00,VWS V14.01,2013-09-08 03:53:00,
2013-09-07 22:58:00,73.5,70.1,29.99,West,271,0.0,0.0,89,0.00,,---,0.00,VWS V14.01,2013-09-08 03:58:00,
2013-09-07 23:03:00,73.2,70.1,29.99,West,271,0.0,0.0,90,0.00,,---,0.00,VWS V14.01,2013-09-08 04:03:00,
2013-09-07 23:09:00,72.9,69.8,29.99,West,271,0.0,0.0,90,0.00,,---,0.00,VWS V14.01,2013-09-08 04:09:00,
2013-09-07 23:14:00,72.9,69.8,29.99,West,271,0.0,0.0,90,0.00,,---,0.00,VWS V14.01,2013-09-08 04:14:00,
2013-09-07 23:19:00,72.6,69.8,29.99,West,271,0.0,0.0,91,0.00,,---,0.00,VWS V14.01,2013-09-08 04:19:00,
2013-09-07 23:24:00,72.5,69.7,29.99,West,271,0.0,0.0,91,0.00,,---,0.00,VWS V14.01,2013-09-08 04:24:00,
2013-09-07 23:29:00,72.4,69.6,29.99,West,271,0.0,0.0,91,0.00,,---,0.00,VWS V14.01,2013-09-08 04:29:00,
2013-09-07 23:34:00,72.2,69.8,29.99,West,271,0.0,0.0,92,0.00,,---,0.00,VWS V14.01,2013-09-08 04:34:00,
2013-09-07 23:36:00,72.1,69.7,29.99,West,271,0.0,0.0,92,0.00,,---,0.00,VWS V14.01,2013-09-08 04:36:00,
2013-09-07 23:39:00,72.1,69.7,29.99,West,271,0.0,0.0,92,0.00,,---,0.00,VWS V14.01,2013-09-08 04:39:00,
2013-09-07 23:44:00,72.1,69.7,29.99,West,271,0.0,0.0,92,0.00,,---,0.00,VWS V14.01,2013-09-08 04:44:00,
2013-09-07 23:49:00,72.4,70.3,29.99,West,271,0.0,0.0,93,0.00,,---,0.00,VWS V14.01,2013-09-08 04:49:00,
2013-09-07 23:54:00,72.4,69.9,29.99,West,271,0.0,0.0,92,0.00,,---,0.00,VWS V14.01,2013-09-08 04:54:00,
2013-09-07 23:59:00,72.1,70.0,29.99,West,271,0.0,0.0,93,0.00,,---,0.00,VWS V14.01,2013-09-08 04:59:00,